Time;durP1;ratioP1;P1;durP2;ratioP2;P2;SDS_P1;SDS_P2;PMS_P1;PMS_P2;Temp;Humidity;BMP_temperature;BMP_pressure;BME280_temperature;BME280_humidity;BME280_pressure;Samples;Min_cycle;Max_cycle;Signal;HPM_P1;HPM_P2
2024/03/21 00:02:20;;;;;;;25.60;17.05;;;12.10;99.90;;;;;;5034551;28;20064;-74
2024/03/21 00:04:47;;;;;;;24.30;14.75;;;12.10;99.90;;;;;;5034753;28;20049;-73
2024/03/21 00:07:13;;;;;;;24.08;16.02;;;12.10;99.90;;;;;;5051318;28;20048;-73
2024/03/21 00:09:39;;;;;;;20.27;13.63;;;12.10;99.90;;;;;;5034582;28;20047;-73
2024/03/21 00:12:06;;;;;;;21.58;14.70;;;12.10;99.90;;;;;;5051338;28;20044;-73
2024/03/21 00:14:33;;;;;;;19.25;11.52;;;12.00;99.90;;;;;;5034322;28;20090;-73
2024/03/21 00:17:00;;;;;;;19.45;14.15;;;12.00;99.90;;;;;;5018458;28;20119;-73
2024/03/21 00:19:26;;;;;;;16.23;9.43;;;11.90;99.90;;;;;;5018135;28;20075;-74
2024/03/21 00:21:52;;;;;;;16.73;10.93;;;11.90;99.90;;;;;;5068006;28;20041;-73
2024/03/21 00:24:20;;;;;;;14.52;9.57;;;11.90;99.90;;;;;;5018383;28;20037;-73
2024/03/21 00:26:46;;;;;;;14.30;10.45;;;11.80;99.90;;;;;;5067672;28;20045;-73
2024/03/21 00:29:13;;;;;;;14.88;10.07;;;11.90;99.90;;;;;;5034466;28;20041;-73
2024/03/21 00:31:39;;;;;;;14.68;9.40;;;11.80;99.90;;;;;;5017859;28;20056;-73
2024/03/21 00:34:08;;;;;;;15.20;10.00;;;11.80;99.90;;;;;;5034376;28;20052;-73
2024/03/21 00:36:34;;;;;;;14.18;9.60;;;11.80;99.90;;;;;;5034555;28;20486;-73
2024/03/21 00:39:00;;;;;;;14.43;11.45;;;11.80;99.90;;;;;;5051039;28;20104;-73
2024/03/21 00:41:26;;;;;;;9.48;8.13;;;11.80;99.90;;;;;;5050742;28;20047;-73
2024/03/21 00:43:52;;;;;;;10.75;7.32;;;11.80;99.90;;;;;;5050988;28;20053;-73
2024/03/21 00:46:18;;;;;;;11.48;7.00;;;11.70;99.90;;;;;;5017884;28;20135;-73
2024/03/21 00:48:44;;;;;;;8.82;6.55;;;12.00;99.90;;;;;;5050760;28;20563;-73
2024/03/21 00:51:10;;;;;;;12.30;8.70;;;11.80;99.90;;;;;;5018343;28;20076;-73
2024/03/21 00:53:36;;;;;;;9.43;6.43;;;11.80;99.90;;;;;;5038028;28;20175;-73
2024/03/21 00:56:02;;;;;;;9.70;8.07;;;11.80;99.90;;;;;;5038125;28;20180;-73
2024/03/21 00:58:29;;;;;;;9.40;8.02;;;11.70;99.90;;;;;;5054682;28;20474;-73
2024/03/21 01:00:55;;;;;;;10.32;7.20;;;11.70;99.90;;;;;;5054832;28;20401;-74
2024/03/21 01:03:22;;;;;;;9.35;6.40;;;11.70;99.90;;;;;;5038368;28;20045;-73
2024/03/21 01:05:54;;;;;;;9.85;7.93;;;11.60;99.90;;;;;;5037967;28;20056;-73
2024/03/21 01:08:20;;;;;;;10.77;6.93;;;11.70;99.90;;;;;;5038184;28;20045;-74
2024/03/21 01:10:48;;;;;;;10.95;6.20;;;11.70;99.90;;;;;;5037761;28;20048;-73
2024/03/21 01:13:14;;;;;;;12.57;7.57;;;11.60;99.90;;;;;;5038384;28;20406;-73
2024/03/21 01:15:40;;;;;;;8.90;7.38;;;11.70;99.90;;;;;;5037570;28;20605;-73
2024/03/21 01:18:07;;;;;;;10.85;8.07;;;11.70;99.90;;;;;;5054509;28;20041;-73
2024/03/21 01:20:35;;;;;;;8.80;5.28;;;11.70;99.90;;;;;;5021158;28;20180;-74
2024/03/21 01:23:02;;;;;;;12.20;9.50;;;11.60;99.90;;;;;;5071010;28;20048;-73
2024/03/21 01:25:30;;;;;;;14.23;9.30;;;11.60;99.90;;;;;;5037725;28;20041;-73
2024/03/21 01:27:58;;;;;;;6.07;5.03;;;11.70;99.90;;;;;;5054290;28;20057;-73
2024/03/21 01:30:24;;;;;;;7.68;5.63;;;11.70;99.90;;;;;;5037350;28;20068;-73
2024/03/21 01:32:50;;;;;;;12.15;8.43;;;11.70;99.90;;;;;;5020941;28;20044;-71
2024/03/21 01:35:16;;;;;;;5.80;4.72;;;11.80;99.90;;;;;;5054249;28;20041;-71
2024/03/21 01:37:42;;;;;;;10.82;7.47;;;11.80;99.90;;;;;;5021004;28;20033;-72
2024/03/21 01:40:11;;;;;;;9.95;8.48;;;11.80;99.90;;;;;;5037621;28;20498;-71
2024/03/21 01:42:37;;;;;;;6.60;4.75;;;11.80;99.90;;;;;;5053834;28;20060;-71
2024/03/21 01:45:05;;;;;;;6.30;4.40;;;11.90;99.90;;;;;;5037516;28;20425;-72
2024/03/21 01:47:34;;;;;;;9.13;7.03;;;11.90;99.90;;;;;;5070742;28;20041;-71
2024/03/21 01:50:02;;;;;;;11.55;5.85;;;11.90;99.90;;;;;;5053922;28;20037;-71
2024/03/21 01:52:29;;;;;;;10.10;7.72;;;11.90;99.90;;;;;;5053855;28;20029;-72
2024/03/21 01:54:56;;;;;;;10.70;6.80;;;11.90;99.90;;;;;;5053459;28;20043;-71
2024/03/21 01:57:23;;;;;;;11.35;7.18;;;11.90;99.90;;;;;;5053755;28;20090;-71
2024/03/21 01:59:49;;;;;;;9.32;6.05;;;11.80;99.90;;;;;;5020424;28;20045;-71
2024/03/21 02:02:15;;;;;;;12.27;9.95;;;11.80;99.90;;;;;;5036687;28;20052;-71
2024/03/21 02:04:42;;;;;;;11.43;6.28;;;11.80;99.90;;;;;;5036843;28;20139;-71
2024/03/21 02:07:15;;;;;;;12.50;8.93;;;11.80;99.90;;;;;;5036894;28;20044;-71
2024/03/21 02:09:41;;;;;;;15.82;8.23;;;11.80;99.90;;;;;;5037721;28;20403;-71
2024/03/21 02:12:08;;;;;;;8.93;5.90;;;11.70;99.90;;;;;;5036628;28;20223;-71
2024/03/21 02:14:36;;;;;;;14.00;9.15;;;11.70;99.90;;;;;;5053410;28;20057;-71
2024/03/21 02:17:03;;;;;;;14.52;7.43;;;11.70;99.90;;;;;;5036928;28;20029;-71
2024/03/21 02:19:29;;;;;;;14.00;8.82;;;11.70;99.90;;;;;;5020220;28;20041;-71
2024/03/21 02:24:40;;;;;;;15.10;7.93;;;11.60;99.90;;;;;;5022294;28;20094;-72
2024/03/21 02:27:06;;;;;;;12.57;9.23;;;11.50;99.90;;;;;;5020122;28;20049;-71
2024/03/21 02:29:32;;;;;;;10.10;8.13;;;11.50;99.90;;;;;;5019700;28;20048;-72
2024/03/21 02:31:58;;;;;;;15.77;8.35;;;11.50;99.90;;;;;;5052659;28;20049;-71
2024/03/21 02:34:24;;;;;;;12.05;7.55;;;11.40;99.90;;;;;;5052924;28;20052;-71
2024/03/21 02:36:51;;;;;;;13.48;8.05;;;11.30;99.90;;;;;;5036227;28;20152;-71
2024/03/21 02:39:17;;;;;;;16.42;9.35;;;11.30;99.90;;;;;;5036370;28;20041;-72
2024/03/21 02:41:43;;;;;;;11.65;7.07;;;11.30;99.90;;;;;;5052657;28;20480;-71
2024/03/21 02:44:09;;;;;;;15.68;9.95;;;11.30;99.90;;;;;;5019941;28;20051;-72
2024/03/21 02:46:36;;;;;;;11.82;9.07;;;11.30;99.90;;;;;;5052790;28;20037;-72
2024/03/21 02:49:02;;;;;;;11.43;5.30;;;11.20;99.90;;;;;;5019456;28;20052;-72
2024/03/21 02:51:28;;;;;;;10.20;8.13;;;11.20;99.90;;;;;;5035905;28;20049;-72
2024/03/21 02:53:54;;;;;;;10.13;8.38;;;11.10;99.90;;;;;;5035781;28;20144;-72
2024/03/21 02:56:20;;;;;;;11.00;6.85;;;11.10;99.90;;;;;;5019531;28;20047;-72
2024/03/21 02:58:46;;;;;;;14.98;8.88;;;11.10;99.90;;;;;;5019451;28;20079;-72
2024/03/21 03:01:12;;;;;;;11.80;7.40;;;11.10;99.90;;;;;;5035904;28;20048;-72
2024/03/21 03:03:38;;;;;;;12.60;7.80;;;11.10;99.90;;;;;;5052516;28;20041;-71
2024/03/21 03:06:04;;;;;;;13.13;7.53;;;11.10;99.90;;;;;;5052300;28;20497;-72
2024/03/21 03:08:30;;;;;;;10.45;6.10;;;11.10;99.90;;;;;;5019349;28;20044;-73
2024/03/21 03:10:57;;;;;;;14.18;10.38;;;11.00;99.90;;;;;;5035293;28;20045;-73
2024/03/21 03:13:23;;;;;;;13.00;7.75;;;10.90;99.90;;;;;;5035560;28;20045;-74
2024/03/21 03:15:49;;;;;;;9.40;6.43;;;10.90;99.90;;;;;;5018455;28;20102;-73
2024/03/21 03:18:15;;;;;;;10.98;7.50;;;10.80;99.90;;;;;;5035537;28;20121;-74
2024/03/21 03:20:41;;;;;;;10.20;7.85;;;10.80;99.90;;;;;;5019041;28;20060;-73
2024/03/21 03:23:09;;;;;;;9.63;7.55;;;10.80;99.90;;;;;;5051910;28;20553;-74
2024/03/21 03:25:40;;;;;;;10.05;6.22;;;10.80;99.90;;;;;;5019344;28;20448;-73
2024/03/21 03:28:05;;;;;;;10.05;5.07;;;10.70;99.90;;;;;;5051893;28;20041;-73
2024/03/21 03:30:31;;;;;;;7.72;5.45;;;10.70;99.90;;;;;;5034313;28;20049;-73
2024/03/21 03:32:58;;;;;;;6.47;4.43;;;10.60;99.90;;;;;;5025979;28;20030;-73
2024/03/21 03:35:42;;;;;;;7.72;6.93;;;10.50;99.90;;;;;;5031897;28;20037;-73
2024/03/21 03:38:13;;;;;;;7.47;6.55;;;10.40;99.90;;;;;;5031042;28;20041;-73
2024/03/21 03:40:38;;;;;;;;;;;10.20;99.90;;;;;;5031838;28;20045;-73
2024/03/21 03:43:04;;;;;;;11.68;9.02;;;10.20;99.90;;;;;;5031640;28;19967;-73
2024/03/21 03:45:30;;;;;;;11.30;8.25;;;9.90;99.90;;;;;;4999126;28;20050;-73
2024/03/21 03:47:56;;;;;;;9.82;7.55;;;9.80;99.90;;;;;;5015212;28;20490;-73
2024/03/21 03:50:22;;;;;;;11.73;8.25;;;9.70;99.90;;;;;;5031553;28;20395;-73
2024/03/21 03:52:48;;;;;;;12.15;7.75;;;9.60;99.90;;;;;;5015131;28;20046;-74
2024/03/21 03:55:14;;;;;;;13.07;9.60;;;9.50;99.90;;;;;;5014905;28;20049;-73
2024/03/21 03:57:40;;;;;;;9.50;5.97;;;9.40;99.90;;;;;;4998890;28;20034;-73
2024/03/21 04:00:10;;;;;;;12.15;8.70;;;9.30;99.90;;;;;;5014549;28;20045;-73
2024/03/21 04:02:41;;;;;;;12.75;8.18;;;9.20;99.90;;;;;;5033162;28;20136;-73
2024/03/21 04:05:09;;;;;;;14.90;8.13;;;9.10;99.90;;;;;;5014403;28;20049;-73
2024/03/21 04:07:36;;;;;;;14.25;9.20;;;9.10;99.90;;;;;;4998253;28;20049;-73
2024/03/21 04:10:05;;;;;;;18.02;10.98;;;9.10;99.90;;;;;;5031127;28;20486;-73
2024/03/21 04:12:32;;;;;;;13.07;8.55;;;9.10;99.90;;;;;;5031988;28;20041;-73
2024/03/21 04:14:57;;;;;;;12.18;7.68;;;9.00;99.90;;;;;;5014666;28;20050;-73
2024/03/21 04:17:23;;;;;;;14.45;8.48;;;9.00;99.90;;;;;;5031398;28;20056;-73
2024/03/21 04:19:49;;;;;;;17.95;8.93;;;9.00;99.90;;;;;;5014947;28;20033;-73
2024/03/21 04:22:15;;;;;;;15.57;9.48;;;9.00;99.90;;;;;;4998348;28;20509;-73
2024/03/21 04:24:41;;;;;;;10.27;7.55;;;8.90;99.90;;;;;;5031246;28;20044;-73
2024/03/21 04:27:09;;;;;;;12.90;7.78;;;9.00;99.90;;;;;;5030985;28;20044;-73
2024/03/21 04:29:35;;;;;;;17.20;7.43;;;8.90;99.90;;;;;;5030980;28;20034;-73
2024/03/21 04:32:01;;;;;;;8.50;5.57;;;8.90;99.90;;;;;;5014265;28;20487;-73
2024/03/21 04:34:27;;;;;;;12.48;7.43;;;8.80;99.90;;;;;;5014742;28;20052;-73
2024/03/21 04:36:53;;;;;;;20.23;7.15;;;8.80;99.90;;;;;;5030994;28;20041;-73
2024/03/21 04:39:19;;;;;;;12.10;7.78;;;8.80;99.90;;;;;;4998067;28;20041;-73
2024/03/21 04:41:45;;;;;;;9.07;5.47;;;8.70;99.90;;;;;;5014637;28;20048;-73
2024/03/21 04:44:11;;;;;;;14.85;7.03;;;8.70;99.90;;;;;;5014481;28;20091;-73
2024/03/21 04:46:37;;;;;;;12.32;6.65;;;8.70;99.90;;;;;;5014637;28;20048;-72
2024/03/21 04:49:03;;;;;;;6.35;4.88;;;8.70;99.90;;;;;;5014249;28;20053;-73
2024/03/21 04:51:29;;;;;;;6.30;3.42;;;8.70;99.90;;;;;;4998239;28;20060;-73
2024/03/21 04:53:55;;;;;;;4.50;3.03;;;8.70;99.90;;;;;;4998175;28;20073;-73
2024/03/21 04:56:21;;;;;;;10.00;4.28;;;8.60;99.90;;;;;;5014271;28;20049;-73
2024/03/21 04:58:48;;;;;;;9.77;4.72;;;8.50;99.90;;;;;;5014400;28;20095;-73
2024/03/21 05:01:14;;;;;;;8.30;2.72;;;8.40;99.90;;;;;;5014216;28;20057;-73
2024/03/21 05:03:40;;;;;;;12.20;3.80;;;8.40;99.90;;;;;;5014597;28;20037;-73
2024/03/21 05:06:07;;;;;;;8.38;3.65;;;8.40;99.90;;;;;;5014380;28;20046;-73
2024/03/21 05:08:33;;;;;;;8.13;4.25;;;8.40;99.90;;;;;;5030860;28;20038;-73
2024/03/21 05:10:59;;;;;;;8.43;3.55;;;8.40;99.90;;;;;;4997949;28;20053;-73
2024/03/21 05:13:25;;;;;;;9.23;3.40;;;8.40;99.90;;;;;;5014079;28;20052;-73
2024/03/21 05:15:51;;;;;;;3.70;2.25;;;8.30;99.90;;;;;;4998053;28;20053;-73
2024/03/21 05:18:17;;;;;;;8.95;3.65;;;8.30;99.90;;;;;;5030496;28;20046;-73
2024/03/21 05:20:44;;;;;;;5.90;2.78;;;8.30;99.90;;;;;;5014402;28;20049;-73
2024/03/21 05:23:10;;;;;;;7.18;3.38;;;8.30;99.90;;;;;;5013927;28;20418;-73
2024/03/21 05:25:37;;;;;;;6.25;2.85;;;8.30;99.90;;;;;;5030672;28;20061;-72
2024/03/21 05:28:04;;;;;;;6.50;3.20;;;8.30;99.90;;;;;;5030602;28;20041;-72
2024/03/21 05:30:30;;;;;;;4.90;3.47;;;8.20;99.90;;;;;;5014013;28;20050;-73
2024/03/21 05:32:57;;;;;;;6.80;3.28;;;8.20;99.90;;;;;;4997952;28;20095;-73
2024/03/21 05:35:23;;;;;;;9.23;2.80;;;8.20;99.90;;;;;;5030373;28;20498;-73
2024/03/21 05:37:49;;;;;;;8.18;2.83;;;8.20;99.90;;;;;;5032088;28;20045;-73
2024/03/21 05:40:15;;;;;;;6.28;3.35;;;8.20;99.90;;;;;;5017455;28;20045;-73
2024/03/21 05:42:44;;;;;;;12.00;3.95;;;8.20;99.90;;;;;;5034150;28;20049;-72
2024/03/21 05:45:10;;;;;;;3.30;1.67;;;8.20;99.90;;;;;;5000958;28;20406;-73
2024/03/21 05:47:36;;;;;;;3.80;2.35;;;8.20;99.90;;;;;;5017555;28;20384;-73
2024/03/21 05:50:03;;;;;;;4.88;2.75;;;8.30;99.90;;;;;;5033778;28;20045;-73
2024/03/21 05:52:29;;;;;;;6.82;3.40;;;8.30;99.90;;;;;;5000822;28;20120;-73
2024/03/21 05:54:55;;;;;;;6.95;3.03;;;8.30;99.90;;;;;;5033797;28;20045;-73
2024/03/21 05:57:23;;;;;;;3.80;2.05;;;8.30;99.90;;;;;;5033636;28;20037;-72
2024/03/21 05:59:53;;;;;;;4.07;2.33;;;8.30;99.90;;;;;;5001077;28;20506;-73
2024/03/21 06:02:19;;;;;;;3.53;3.10;;;8.40;99.90;;;;;;5034740;28;20083;-73
2024/03/21 06:04:46;;;;;;;4.55;2.72;;;8.40;99.90;;;;;;5000021;28;20483;-72
2024/03/21 06:07:11;;;;;;;8.48;4.03;;;8.40;99.90;;;;;;5031899;28;20041;-73
2024/03/21 06:09:37;;;;;;;5.13;3.17;;;8.50;99.90;;;;;;5033730;28;20042;-73
2024/03/21 06:12:04;;;;;;;8.63;2.15;;;8.50;99.90;;;;;;5033520;28;20095;-73
2024/03/21 06:14:30;;;;;;;5.95;1.70;;;8.60;99.90;;;;;;5016902;28;20449;-73
2024/03/21 06:16:56;;;;;;;4.47;2.45;;;8.60;99.90;;;;;;5000829;28;20057;-73
2024/03/21 06:19:22;;;;;;;3.92;1.95;;;8.70;99.90;;;;;;5033053;28;20045;-73
2024/03/21 06:21:48;;;;;;;5.45;1.90;;;8.70;99.90;;;;;;5033455;28;20045;-73
2024/03/21 06:24:14;;;;;;;4.93;2.47;;;8.80;99.90;;;;;;5016546;28;20053;-72
2024/03/21 06:26:40;;;;;;;3.58;2.13;;;8.90;99.90;;;;;;5016871;28;20399;-73
2024/03/21 06:29:06;;;;;;;5.90;1.98;;;8.90;99.90;;;;;;5016712;28;20510;-73
2024/03/21 06:31:32;;;;;;;6.00;1.50;;;9.00;99.90;;;;;;5032724;28;20054;-73
2024/03/21 06:33:58;;;;;;;3.33;2.17;;;9.00;99.90;;;;;;5016658;28;20376;-72
2024/03/21 06:36:24;;;;;;;4.70;1.83;;;9.10;99.90;;;;;;5016328;28;20041;-73
2024/03/21 06:38:51;;;;;;;2.38;1.60;;;9.10;99.90;;;;;;5033044;28;20479;-73
2024/03/21 06:41:17;;;;;;;4.97;2.03;;;9.10;99.90;;;;;;5032839;28;20041;-72
2024/03/21 06:43:44;;;;;;;6.00;2.35;;;9.20;99.90;;;;;;5032881;28;20056;-73
2024/03/21 06:46:10;;;;;;;9.68;3.65;;;9.20;99.90;;;;;;5032920;28;20068;-73
2024/03/21 06:48:36;;;;;;;5.18;2.45;;;9.30;99.90;;;;;;5016214;28;20053;-73
2024/03/21 06:51:07;;;;;;;4.10;2.13;;;9.30;99.90;;;;;;5016401;28;20108;-73
2024/03/21 06:53:34;;;;;;;9.73;2.58;;;9.40;99.90;;;;;;5016093;28;20495;-73
2024/03/21 06:56:00;;;;;;;9.65;3.22;;;9.30;99.90;;;;;;5032771;28;20475;-73
2024/03/21 06:58:27;;;;;;;6.88;3.17;;;9.40;99.90;;;;;;5016113;28;20454;-73
2024/03/21 07:00:53;;;;;;;11.20;2.80;;;9.40;99.90;;;;;;5016201;28;20446;-73
2024/03/21 07:03:19;;;;;;;6.43;3.08;;;9.40;99.90;;;;;;5032566;28;20042;-73
2024/03/21 07:05:47;;;;;;;6.03;3.20;;;9.40;99.90;;;;;;5016028;28;20045;-73
2024/03/21 07:08:13;;;;;;;5.05;3.45;;;9.40;99.90;;;;;;5032506;28;20041;-72
2024/03/21 07:10:39;;;;;;;7.85;3.55;;;9.40;99.90;;;;;;4999307;28;20444;-73
2024/03/21 07:13:05;;;;;;;3.72;3.05;;;9.30;99.90;;;;;;5017032;28;20045;-73
2024/03/21 07:15:31;;;;;;;6.55;3.42;;;9.30;99.90;;;;;;5051986;28;20143;-72
2024/03/21 07:17:57;;;;;;;8.13;3.22;;;9.30;99.90;;;;;;5051765;28;20041;-73
2024/03/21 07:20:23;;;;;;;5.57;3.42;;;9.30;99.90;;;;;;5034539;28;20063;-73
2024/03/21 07:22:49;;;;;;;8.05;4.22;;;9.40;99.90;;;;;;5051344;28;20036;-73
2024/03/21 07:25:16;;;;;;;6.40;2.42;;;9.40;99.90;;;;;;5067940;28;20482;-73
2024/03/21 07:27:42;;;;;;;5.45;2.47;;;9.30;99.90;;;;;;5034660;28;20494;-73
2024/03/21 07:30:11;;;;;;;7.97;2.63;;;9.40;99.90;;;;;;5018200;28;20049;-72
2024/03/21 07:32:38;;;;;;;7.43;4.75;;;9.40;99.90;;;;;;5018474;28;20086;-73
2024/03/21 07:35:04;;;;;;;7.45;2.85;;;9.50;99.90;;;;;;5035405;28;20048;-73
2024/03/21 07:37:30;;;;;;;6.13;3.28;;;9.50;99.90;;;;;;5051731;28;20045;-73
2024/03/21 07:40:00;;;;;;;8.05;3.00;;;9.50;99.90;;;;;;5035210;28;20052;-73
2024/03/21 07:42:27;;;;;;;3.70;2.40;;;9.60;99.90;;;;;;5019276;28;20049;-74
2024/03/21 07:44:54;;;;;;;3.85;1.92;;;9.60;99.90;;;;;;5018542;28;20094;-72
2024/03/21 07:47:21;;;;;;;4.45;2.08;;;9.60;99.90;;;;;;5035130;28;20040;-73
2024/03/21 07:49:48;;;;;;;5.22;1.63;;;9.70;99.90;;;;;;5035232;28;20055;-73
2024/03/21 07:52:14;;;;;;;3.42;1.92;;;9.60;99.90;;;;;;5018499;28;20123;-72
2024/03/21 07:54:40;;;;;;;6.88;1.70;;;9.70;99.90;;;;;;5018332;28;20067;-73
2024/03/21 07:57:07;;;;;;;6.55;2.80;;;9.70;99.90;;;;;;5018618;28;20048;-73
2024/03/21 07:59:33;;;;;;;4.50;1.95;;;9.60;99.90;;;;;;5018022;28;20060;-73
2024/03/21 08:01:59;;;;;;;4.05;1.85;;;9.70;99.90;;;;;;5018025;28;20136;-73
2024/03/21 08:04:25;;;;;;;2.92;1.58;;;9.70;99.90;;;;;;5067792;28;20066;-73
2024/03/21 08:06:51;;;;;;;5.00;1.10;;;9.80;99.90;;;;;;5034699;28;20453;-72
2024/03/21 08:09:17;;;;;;;6.93;2.38;;;9.90;99.90;;;;;;5034838;28;20036;-73
2024/03/21 08:11:43;;;;;;;6.50;3.15;;;9.90;99.90;;;;;;5051005;28;20065;-72
2024/03/21 08:14:09;;;;;;;4.18;1.50;;;9.90;99.90;;;;;;5051144;28;20479;-72
2024/03/21 08:16:35;;;;;;;8.85;1.92;;;9.80;99.90;;;;;;5050972;28;20083;-72
2024/03/21 08:19:01;;;;;;;3.33;1.73;;;9.90;99.90;;;;;;5051169;28;20033;-73
2024/03/21 08:21:27;;;;;;;6.45;1.40;;;9.90;99.90;;;;;;5051000;28;20041;-73
2024/03/21 08:23:53;;;;;;;6.90;1.80;;;9.90;99.90;;;;;;5017909;28;20406;-73
2024/03/21 08:26:19;;;;;;;5.75;2.67;;;10.00;99.90;;;;;;5051163;28;20064;-73
2024/03/21 08:28:45;;;;;;;3.33;2.85;;;10.00;99.90;;;;;;5017790;28;20044;-72
2024/03/21 08:31:11;;;;;;;4.63;2.40;;;10.20;99.90;;;;;;5050758;28;20048;-72
2024/03/21 08:33:37;;;;;;;6.28;2.20;;;10.30;99.90;;;;;;5017656;28;20048;-72
2024/03/21 08:36:04;;;;;;;3.55;1.88;;;10.40;99.90;;;;;;5034271;28;20049;-72
2024/03/21 08:38:31;;;;;;;6.95;2.72;;;10.50;99.90;;;;;;5017692;28;20075;-72
2024/03/21 08:40:57;;;;;;;5.25;1.83;;;10.50;99.90;;;;;;5034277;28;20517;-73
2024/03/21 08:43:23;;;;;;;4.15;2.03;;;10.80;99.90;;;;;;5017833;28;20448;-72
2024/03/21 08:45:50;;;;;;;5.68;2.03;;;11.20;99.90;;;;;;5050683;28;20337;-73
2024/03/21 08:48:16;;;;;;;7.18;2.15;;;11.60;99.90;;;;;;5034343;28;20402;-73
2024/03/21 08:50:45;;;;;;;5.97;2.35;;;11.80;99.90;;;;;;5033883;28;20056;-72
2024/03/21 08:53:11;;;;;;;4.80;1.45;;;12.00;99.90;;;;;;5050822;28;20486;-73
2024/03/21 08:55:37;;;;;;;7.78;1.88;;;12.00;99.70;;;;;;5034092;28;20497;-72
2024/03/21 08:58:05;;;;;;;5.85;2.03;;;12.10;99.90;;;;;;5050750;28;20045;-70
2024/03/21 09:00:32;;;;;;;3.30;1.30;;;12.10;99.90;;;;;;5017767;28;20052;-70
2024/03/21 09:03:02;;;;;;;4.55;2.35;;;12.20;99.90;;;;;;5034214;28;20056;-70
2024/03/21 09:05:28;;;;;;;5.28;2.40;;;12.30;99.80;;;;;;5050705;28;20440;-70
2024/03/21 09:07:55;;;;;;;2.78;2.22;;;12.30;99.70;;;;;;5033940;28;20045;-71
2024/03/21 09:10:21;;;;;;;2.95;1.80;;;12.50;99.50;;;;;;5067156;28;20041;-71
2024/03/21 09:12:47;;;;;;;5.22;2.53;;;12.50;98.90;;;;;;5051874;28;20048;-70
2024/03/21 09:15:14;;;;;;;3.63;2.33;;;12.70;99.10;;;;;;5021195;28;20045;-71
2024/03/21 09:17:41;;;;;;;7.07;1.90;;;12.90;98.30;;;;;;5054097;28;20041;-71
2024/03/21 09:20:08;;;;;;;11.48;3.45;;;13.00;98.00;;;;;;5037816;28;20509;-71
2024/03/21 09:22:37;;;;;;;5.22;1.85;;;13.20;97.90;;;;;;5037846;28;20394;-70
2024/03/21 09:25:04;;;;;;;5.90;1.92;;;13.20;97.40;;;;;;5021233;28;20060;-70
2024/03/21 09:27:30;;;;;;;4.80;2.05;;;13.30;97.40;;;;;;5071103;28;20036;-70
2024/03/21 09:29:57;;;;;;;6.88;2.60;;;13.20;97.20;;;;;;5021033;28;20506;-70
2024/03/21 09:32:23;;;;;;;4.80;2.28;;;13.10;97.20;;;;;;5037356;28;20041;-70
2024/03/21 09:34:52;;;;;;;5.50;2.53;;;13.00;97.00;;;;;;5053959;28;20486;-70
2024/03/21 09:37:19;;;;;;;4.10;1.35;;;13.00;96.90;;;;;;5037482;28;20049;-70
2024/03/21 09:39:45;;;;;;;3.75;1.90;;;12.80;97.00;;;;;;5037263;28;20478;-71
2024/03/21 09:42:21;;;;;;;3.83;2.25;;;13.20;96.10;;;;;;5020726;28;20107;-71
2024/03/21 09:44:48;;;;;;;4.35;2.17;;;13.60;96.20;;;;;;5004300;28;20055;-71
2024/03/21 09:47:19;;;;;;;5.22;1.92;;;13.80;95.50;;;;;;5020805;28;20476;-70
2024/03/21 09:49:49;;;;;;;4.70;2.03;;;13.90;95.20;;;;;;5037179;28;20486;-70
2024/03/21 09:52:16;;;;;;;4.93;1.48;;;13.90;95.30;;;;;;5053607;28;20041;-71
2024/03/21 09:54:42;;;;;;;5.72;2.58;;;13.90;95.50;;;;;;5036986;28;20041;-70
2024/03/21 09:57:13;;;;;;;3.58;1.75;;;13.80;95.10;;;;;;5020681;28;20053;-70
2024/03/21 09:59:39;;;;;;;6.88;2.10;;;13.70;94.70;;;;;;5037089;28;20037;-70
2024/03/21 10:02:12;;;;;;;4.03;2.13;;;13.50;95.40;;;;;;5053606;28;20441;-71
2024/03/21 10:04:48;;;;;;;4.00;2.00;;;13.30;95.20;;;;;;5037012;28;20079;-70
2024/03/21 10:07:20;;;;;;;3.70;1.73;;;13.20;95.50;;;;;;5053548;28;20414;-73
2024/03/21 10:09:57;;;;;;;3.53;2.53;;;13.10;95.40;;;;;;5053398;28;20052;-72
2024/03/21 10:12:26;;;;;;;6.50;3.28;;;13.20;95.70;;;;;;5070040;28;20098;-72
2024/03/21 10:14:56;;;;;;;4.53;3.58;;;13.20;95.30;;;;;;5053165;28;20044;-72
2024/03/21 10:17:26;;;;;;;5.82;2.70;;;13.00;95.60;;;;;;5037567;28;20037;-72
2024/03/21 10:19:53;;;;;;;5.18;1.83;;;12.90;95.60;;;;;;5053061;28;20048;-72
2024/03/21 10:22:23;;;;;;;7.35;2.58;;;12.90;95.60;;;;;;5020072;28;20045;-72
2024/03/21 10:24:53;;;;;;;5.95;1.80;;;12.80;95.60;;;;;;5036124;28;20037;-72
2024/03/21 10:27:20;;;;;;;5.28;1.80;;;12.80;95.70;;;;;;5036632;28;20048;-73
2024/03/21 10:29:47;;;;;;;2.67;1.75;;;12.70;95.60;;;;;;5036296;28;20044;-72
2024/03/21 10:32:20;;;;;;;5.88;1.90;;;12.60;94.90;;;;;;5036330;28;20376;-72
2024/03/21 10:34:48;;;;;;;7.93;1.83;;;12.70;95.50;;;;;;5052923;28;20041;-73
2024/03/21 10:37:19;;;;;;;3.63;1.38;;;13.00;95.30;;;;;;5036372;28;20041;-72
2024/03/21 10:39:46;;;;;;;2.78;1.95;;;13.20;94.90;;;;;;5036187;28;20140;-72
2024/03/21 10:42:23;;;;;;;8.95;3.08;;;13.30;94.90;;;;;;5019768;28;20037;-73
2024/03/21 10:44:53;;;;;;;8.95;2.13;;;13.40;94.70;;;;;;5052703;28;20068;-73
2024/03/21 10:47:19;;;;;;;5.63;2.28;;;13.30;94.80;;;;;;5019692;28;20053;-73
2024/03/21 10:49:45;;;;;;;6.75;2.88;;;13.20;94.90;;;;;;5015553;28;20052;-72
2024/03/21 10:52:14;;;;;;;5.70;2.30;;;13.10;95.10;;;;;;5031683;28;20049;-72
2024/03/21 10:54:41;;;;;;;3.75;1.90;;;13.00;95.20;;;;;;5032825;28;20046;-72
2024/03/21 10:57:16;;;;;;;5.22;2.33;;;12.90;95.30;;;;;;5016011;28;20041;-71
2024/03/21 10:59:43;;;;;;;2.97;1.95;;;12.90;95.40;;;;;;5015969;28;20049;-72
2024/03/21 11:02:14;;;;;;;6.50;1.63;;;12.80;95.10;;;;;;5015994;28;20388;-72
2024/03/21 11:04:43;;;;;;;5.00;2.88;;;12.80;94.80;;;;;;5032740;28;20103;-72
2024/03/21 11:07:13;;;;;;;2.92;1.80;;;12.70;95.20;;;;;;5032163;28;20079;-72
2024/03/21 11:09:48;;;;;;;5.18;1.75;;;12.60;95.10;;;;;;5015902;28;20045;-72
2024/03/21 11:12:14;;;;;;;4.47;2.00;;;12.70;95.50;;;;;;5015793;28;20041;-72
2024/03/21 11:14:43;;;;;;;3.53;2.22;;;12.70;95.30;;;;;;5032404;28;20034;-72
2024/03/21 11:17:12;;;;;;;5.68;2.63;;;12.70;95.30;;;;;;5032108;28;20043;-72
2024/03/21 11:19:39;;;;;;;4.85;1.77;;;12.80;95.30;;;;;;5015826;28;20041;-72
2024/03/21 11:22:10;;;;;;;3.38;1.55;;;12.60;95.30;;;;;;4999268;28;20049;-72
2024/03/21 11:24:36;;;;;;;6.65;2.78;;;12.40;95.50;;;;;;5032468;28;20041;-72
2024/03/21 11:27:05;;;;;;;3.97;1.55;;;12.20;95.50;;;;;;4999153;28;20045;-73
2024/03/21 11:29:31;;;;;;;6.30;2.10;;;12.00;95.70;;;;;;4999774;28;20047;-73
2024/03/21 11:31:57;;;;;;;5.97;2.08;;;11.90;96.00;;;;;;5031806;28;20053;-72
2024/03/21 11:34:24;;;;;;;3.25;1.70;;;11.90;95.90;;;;;;5015267;28;20462;-72
2024/03/21 11:36:50;;;;;;;5.93;3.63;;;11.80;95.90;;;;;;5031672;28;20044;-72
2024/03/21 11:39:17;;;;;;;4.95;2.53;;;11.80;96.20;;;;;;4999016;28;20033;-72
2024/03/21 11:41:43;;;;;;;4.68;3.25;;;11.80;96.10;;;;;;5015547;28;20103;-73
2024/03/21 11:44:14;;;;;;;4.03;2.88;;;11.90;96.20;;;;;;4999115;28;20053;-72
2024/03/21 11:46:40;;;;;;;3.35;2.42;;;11.90;96.30;;;;;;5031818;28;20053;-72
2024/03/21 11:49:10;;;;;;;5.32;3.13;;;12.00;96.00;;;;;;4998625;28;20442;-72
2024/03/21 11:51:37;;;;;;;4.40;2.97;;;12.00;96.00;;;;;;5015463;28;20042;-72
2024/03/21 11:54:04;;;;;;;3.33;2.72;;;12.10;95.90;;;;;;5015078;28;20068;-72
2024/03/21 11:56:31;;;;;;;3.20;1.95;;;11.90;95.90;;;;;;5031670;28;20411;-73
2024/03/21 11:58:58;;;;;;;2.92;2.63;;;11.90;95.90;;;;;;4998541;28;20037;-72
2024/03/21 12:01:24;;;;;;;5.70;2.92;;;11.80;96.10;;;;;;5015187;28;20073;-72
2024/03/21 12:03:50;;;;;;;6.43;3.42;;;11.80;96.30;;;;;;5015181;28;20045;-72
2024/03/21 12:06:16;;;;;;;6.10;3.53;;;11.80;96.20;;;;;;5031418;28;20095;-72
2024/03/21 12:08:46;;;;;;;5.35;3.00;;;11.90;96.30;;;;;;5031474;28;20046;-72
2024/03/21 12:11:15;;;;;;;4.40;3.00;;;12.00;96.10;;;;;;5014722;28;20410;-72
2024/03/21 12:13:42;;;;;;;6.60;2.58;;;12.10;95.90;;;;;;5015017;28;20049;-72
2024/03/21 12:16:19;;;;;;;7.15;4.07;;;12.10;95.90;;;;;;5014599;28;20487;-72
2024/03/21 12:18:45;;;;;;;5.78;4.68;;;12.20;95.90;;;;;;5014910;28;20544;-72
2024/03/21 12:21:19;;;;;;;5.72;2.97;;;12.30;95.50;;;;;;5014795;28;20042;-72
2024/03/21 12:23:47;;;;;;;5.13;3.20;;;12.30;95.40;;;;;;5014749;28;20495;-72
2024/03/21 12:26:15;;;;;;;6.97;2.25;;;12.30;95.60;;;;;;5047665;28;20041;-72
2024/03/21 12:28:42;;;;;;;7.18;2.92;;;12.30;95.80;;;;;;5031187;28;20395;-72
2024/03/21 12:31:13;;;;;;;8.73;3.42;;;12.20;96.10;;;;;;5030751;28;20054;-72
2024/03/21 12:33:39;;;;;;;4.45;3.10;;;12.20;96.00;;;;;;5031414;28;20037;-72
2024/03/21 12:36:06;;;;;;;3.45;2.72;;;12.20;95.90;;;;;;5014433;28;20052;-72
2024/03/21 12:38:32;;;;;;;6.82;2.38;;;12.00;96.10;;;;;;5031181;28;20033;-72
2024/03/21 12:40:59;;;;;;;4.93;3.75;;;11.90;96.20;;;;;;5031083;28;20060;-72
2024/03/21 12:43:25;;;;;;;7.15;3.97;;;11.80;96.50;;;;;;5033984;28;20049;-72
2024/03/21 12:45:52;;;;;;;5.72;2.80;;;11.90;96.60;;;;;;5050796;28;20064;-73
2024/03/21 12:48:19;;;;;;;4.03;3.30;;;11.80;96.60;;;;;;5038209;28;20057;-72
2024/03/21 12:50:45;;;;;;;5.32;3.47;;;11.80;96.60;;;;;;5038310;28;20045;-72